Bear Mine, Colorado
Current Conditions -  °F | °C
As of 8:53 PM on Wednesday 17 Dec 2014 (Local Time) from KASE Reporting Station
Light Snow Light Snow  
Wind Chill: 28°   Ceiling: 1400
Heat Index: 28°   Visibility: 2.5mi
Dew Point: 26°   Wind: 0mph
Humidity: 92%   Direction: NA
Pressure: 29.98"   Gusts: NA
Location:  38.939°N, 107.343°W
Report Text: KASE 180353Z AUTO 00000KT 2 1/2SM -SN BR FEW001 OVC014 M02/M03 A2998 RMK AO2 SLP151 P0000 T10221033
Loading
Personal Weather Stations






























Interactive Weather Map New forecast layout! Learn more

10-Day Weather Forecast

Advertisements
Track Severe Weather on mobile